sensor_id;sensor_type;location;lat;lon;timestamp;P1;durP1;ratioP1;P2;durP2;ratioP2
21769;SDS011;11046;49.558;8.674;2023-02-23T00:01:57;59.90;;;30.07;;
21769;SDS011;11046;49.558;8.674;2023-02-23T00:05:07;63.70;;;31.67;;
21769;SDS011;11046;49.558;8.674;2023-02-23T00:08:08;62.63;;;30.70;;
21769;SDS011;11046;49.558;8.674;2023-02-23T00:11:10;69.63;;;31.37;;
21769;SDS011;11046;49.558;8.674;2023-02-23T00:14:11;65.10;;;30.97;;
21769;SDS011;11046;49.558;8.674;2023-02-23T00:17:11;61.87;;;32.20;;
21769;SDS011;11046;49.558;8.674;2023-02-23T00:20:13;64.87;;;32.33;;
21769;SDS011;11046;49.558;8.674;2023-02-23T00:23:15;61.77;;;32.20;;
21769;SDS011;11046;49.558;8.674;2023-02-23T00:26:16;58.00;;;31.47;;
21769;SDS011;11046;49.558;8.674;2023-02-23T00:29:20;61.00;;;32.43;;
21769;SDS011;11046;49.558;8.674;2023-02-23T00:32:22;57.47;;;32.23;;
21769;SDS011;11046;49.558;8.674;2023-02-23T00:35:24;60.00;;;33.67;;
21769;SDS011;11046;49.558;8.674;2023-02-23T00:38:24;58.20;;;31.70;;
21769;SDS011;11046;49.558;8.674;2023-02-23T00:41:27;58.23;;;32.40;;
21769;SDS011;11046;49.558;8.674;2023-02-23T00:44:28;64.83;;;32.93;;
21769;SDS011;11046;49.558;8.674;2023-02-23T00:47:29;61.73;;;33.03;;
21769;SDS011;11046;49.558;8.674;2023-02-23T00:50:30;59.93;;;34.07;;
21769;SDS011;11046;49.558;8.674;2023-02-23T00:53:31;58.90;;;32.10;;
21769;SDS011;11046;49.558;8.674;2023-02-23T00:56:32;59.03;;;32.67;;
21769;SDS011;11046;49.558;8.674;2023-02-23T00:59:33;58.47;;;32.57;;
21769;SDS011;11046;49.558;8.674;2023-02-23T01:02:34;65.83;;;33.07;;
21769;SDS011;11046;49.558;8.674;2023-02-23T01:05:35;60.27;;;33.60;;
21769;SDS011;11046;49.558;8.674;2023-02-23T01:08:36;63.77;;;33.00;;
21769;SDS011;11046;49.558;8.674;2023-02-23T01:11:38;59.13;;;33.03;;
21769;SDS011;11046;49.558;8.674;2023-02-23T01:14:40;63.37;;;32.93;;
21769;SDS011;11046;49.558;8.674;2023-02-23T01:17:41;66.37;;;32.40;;
21769;SDS011;11046;49.558;8.674;2023-02-23T01:20:44;67.70;;;32.47;;
21769;SDS011;11046;49.558;8.674;2023-02-23T01:23:45;68.13;;;33.77;;
21769;SDS011;11046;49.558;8.674;2023-02-23T01:26:46;63.63;;;32.27;;
21769;SDS011;11046;49.558;8.674;2023-02-23T01:29:46;59.93;;;32.33;;
21769;SDS011;11046;49.558;8.674;2023-02-23T01:32:48;64.20;;;33.30;;
21769;SDS011;11046;49.558;8.674;2023-02-23T01:35:56;58.13;;;32.07;;
21769;SDS011;11046;49.558;8.674;2023-02-23T01:38:58;63.70;;;34.50;;
21769;SDS011;11046;49.558;8.674;2023-02-23T01:41:59;59.20;;;32.27;;
21769;SDS011;11046;49.558;8.674;2023-02-23T01:48:19;68.17;;;33.07;;
21769;SDS011;11046;49.558;8.674;2023-02-23T01:51:24;58.50;;;32.03;;
21769;SDS011;11046;49.558;8.674;2023-02-23T01:54:31;64.83;;;33.97;;
21769;SDS011;11046;49.558;8.674;2023-02-23T01:57:35;62.20;;;32.90;;
21769;SDS011;11046;49.558;8.674;2023-02-23T02:00:35;61.30;;;32.93;;
21769;SDS011;11046;49.558;8.674;2023-02-23T02:07:19;66.10;;;34.63;;
21769;SDS011;11046;49.558;8.674;2023-02-23T02:10:24;61.37;;;32.97;;
21769;SDS011;11046;49.558;8.674;2023-02-23T02:14:00;62.20;;;32.80;;
21769;SDS011;11046;49.558;8.674;2023-02-23T02:27:16;64.40;;;31.27;;
21769;SDS011;11046;49.558;8.674;2023-02-23T02:30:42;63.20;;;32.10;;
21769;SDS011;11046;49.558;8.674;2023-02-23T02:37:48;63.10;;;32.67;;
21769;SDS011;11046;49.558;8.674;2023-02-23T02:41:04;60.20;;;31.07;;
21769;SDS011;11046;49.558;8.674;2023-02-23T02:44:17;58.60;;;32.83;;
21769;SDS011;11046;49.558;8.674;2023-02-23T02:47:27;63.87;;;32.90;;
21769;SDS011;11046;49.558;8.674;2023-02-23T02:50:55;58.73;;;32.83;;
21769;SDS011;11046;49.558;8.674;2023-02-23T02:54:05;68.00;;;33.93;;
21769;SDS011;11046;49.558;8.674;2023-02-23T02:57:24;65.23;;;33.33;;
21769;SDS011;11046;49.558;8.674;2023-02-23T03:00:29;60.77;;;32.00;;
21769;SDS011;11046;49.558;8.674;2023-02-23T03:03:54;59.07;;;32.67;;
21769;SDS011;11046;49.558;8.674;2023-02-23T03:07:19;60.73;;;32.70;;
21769;SDS011;11046;49.558;8.674;2023-02-23T03:10:53;65.00;;;32.33;;
21769;SDS011;11046;49.558;8.674;2023-02-23T03:17:57;66.27;;;32.03;;
21769;SDS011;11046;49.558;8.674;2023-02-23T03:21:25;63.70;;;32.03;;
21769;SDS011;11046;49.558;8.674;2023-02-23T03:24:54;67.67;;;31.67;;
21769;SDS011;11046;49.558;8.674;2023-02-23T03:28:26;63.33;;;30.07;;
21769;SDS011;11046;49.558;8.674;2023-02-23T03:32:11;60.43;;;29.60;;
21769;SDS011;11046;49.558;8.674;2023-02-23T03:35:44;62.43;;;28.43;;
21769;SDS011;11046;49.558;8.674;2023-02-23T03:39:14;57.50;;;28.57;;
21769;SDS011;11046;49.558;8.674;2023-02-23T03:42:40;62.93;;;27.80;;
21769;SDS011;11046;49.558;8.674;2023-02-23T03:46:03;53.97;;;26.60;;
21769;SDS011;11046;49.558;8.674;2023-02-23T03:49:26;61.97;;;27.80;;
21769;SDS011;11046;49.558;8.674;2023-02-23T03:52:53;58.37;;;26.10;;
21769;SDS011;11046;49.558;8.674;2023-02-23T03:56:15;59.10;;;25.83;;
21769;SDS011;11046;49.558;8.674;2023-02-23T03:59:40;57.60;;;29.07;;
21769;SDS011;11046;49.558;8.674;2023-02-23T04:03:15;61.00;;;28.10;;
21769;SDS011;11046;49.558;8.674;2023-02-23T04:06:37;56.80;;;27.23;;
21769;SDS011;11046;49.558;8.674;2023-02-23T04:09:59;63.53;;;29.70;;
21769;SDS011;11046;49.558;8.674;2023-02-23T04:13:20;61.67;;;29.60;;
21769;SDS011;11046;49.558;8.674;2023-02-23T04:16:26;58.80;;;30.47;;
21769;SDS011;11046;49.558;8.674;2023-02-23T04:19:28;62.73;;;29.03;;
21769;SDS011;11046;49.558;8.674;2023-02-23T04:22:29;67.40;;;30.40;;
21769;SDS011;11046;49.558;8.674;2023-02-23T04:25:30;68.80;;;29.53;;
21769;SDS011;11046;49.558;8.674;2023-02-23T04:28:30;60.93;;;28.20;;
21769;SDS011;11046;49.558;8.674;2023-02-23T04:31:31;65.10;;;30.37;;
21769;SDS011;11046;49.558;8.674;2023-02-23T04:34:32;68.53;;;30.40;;
21769;SDS011;11046;49.558;8.674;2023-02-23T04:37:32;67.00;;;30.53;;
21769;SDS011;11046;49.558;8.674;2023-02-23T04:40:33;73.00;;;31.97;;
21769;SDS011;11046;49.558;8.674;2023-02-23T04:43:34;67.07;;;31.83;;
21769;SDS011;11046;49.558;8.674;2023-02-23T04:46:35;77.77;;;33.03;;
21769;SDS011;11046;49.558;8.674;2023-02-23T04:49:35;77.83;;;33.53;;
21769;SDS011;11046;49.558;8.674;2023-02-23T04:52:36;81.03;;;33.60;;
21769;SDS011;11046;49.558;8.674;2023-02-23T04:55:38;82.27;;;35.10;;
21769;SDS011;11046;49.558;8.674;2023-02-23T04:58:38;81.37;;;35.53;;
21769;SDS011;11046;49.558;8.674;2023-02-23T05:01:39;88.90;;;35.27;;
21769;SDS011;11046;49.558;8.674;2023-02-23T05:04:39;92.10;;;36.77;;
21769;SDS011;11046;49.558;8.674;2023-02-23T05:07:40;94.23;;;36.27;;
21769;SDS011;11046;49.558;8.674;2023-02-23T05:10:40;92.47;;;35.63;;
21769;SDS011;11046;49.558;8.674;2023-02-23T05:13:41;87.20;;;36.77;;
21769;SDS011;11046;49.558;8.674;2023-02-23T05:16:41;92.77;;;36.47;;
21769;SDS011;11046;49.558;8.674;2023-02-23T05:19:42;83.13;;;34.10;;
21769;SDS011;11046;49.558;8.674;2023-02-23T05:22:43;82.50;;;34.87;;
21769;SDS011;11046;49.558;8.674;2023-02-23T05:25:44;86.07;;;35.10;;
21769;SDS011;11046;49.558;8.674;2023-02-23T05:28:44;76.13;;;33.40;;
21769;SDS011;11046;49.558;8.674;2023-02-23T05:31:45;75.03;;;32.20;;
21769;SDS011;11046;49.558;8.674;2023-02-23T05:34:47;75.73;;;31.70;;
21769;SDS011;11046;49.558;8.674;2023-02-23T05:37:48;78.73;;;33.17;;
21769;SDS011;11046;49.558;8.674;2023-02-23T05:40:48;80.33;;;33.63;;
21769;SDS011;11046;49.558;8.674;2023-02-23T05:43:49;78.87;;;32.80;;
21769;SDS011;11046;49.558;8.674;2023-02-23T05:46:51;65.50;;;30.63;;
21769;SDS011;11046;49.558;8.674;2023-02-23T05:49:52;73.87;;;32.50;;
21769;SDS011;11046;49.558;8.674;2023-02-23T05:52:52;69.70;;;30.93;;
21769;SDS011;11046;49.558;8.674;2023-02-23T05:55:53;78.20;;;31.60;;
21769;SDS011;11046;49.558;8.674;2023-02-23T05:58:55;72.37;;;31.57;;
21769;SDS011;11046;49.558;8.674;2023-02-23T06:01:56;72.23;;;31.80;;
21769;SDS011;11046;49.558;8.674;2023-02-23T06:04:57;67.87;;;29.73;;
21769;SDS011;11046;49.558;8.674;2023-02-23T06:07:58;77.73;;;33.13;;
21769;SDS011;11046;49.558;8.674;2023-02-23T06:10:59;76.27;;;32.50;;
21769;SDS011;11046;49.558;8.674;2023-02-23T06:14:00;75.50;;;32.77;;
21769;SDS011;11046;49.558;8.674;2023-02-23T06:17:00;75.77;;;32.60;;
21769;SDS011;11046;49.558;8.674;2023-02-23T06:20:01;80.77;;;33.53;;
21769;SDS011;11046;49.558;8.674;2023-02-23T06:23:04;70.73;;;31.37;;
21769;SDS011;11046;49.558;8.674;2023-02-23T06:26:05;72.30;;;30.97;;
21769;SDS011;11046;49.558;8.674;2023-02-23T06:29:07;69.67;;;31.67;;
21769;SDS011;11046;49.558;8.674;2023-02-23T06:32:07;74.80;;;32.17;;
21769;SDS011;11046;49.558;8.674;2023-02-23T06:35:08;66.70;;;29.97;;
21769;SDS011;11046;49.558;8.674;2023-02-23T06:38:09;73.50;;;31.83;;
21769;SDS011;11046;49.558;8.674;2023-02-23T06:41:10;68.63;;;30.37;;
21769;SDS011;11046;49.558;8.674;2023-02-23T06:44:11;74.00;;;31.10;;
21769;SDS011;11046;49.558;8.674;2023-02-23T06:47:12;66.93;;;30.90;;
21769;SDS011;11046;49.558;8.674;2023-02-23T06:50:13;71.53;;;31.97;;
21769;SDS011;11046;49.558;8.674;2023-02-23T06:53:14;70.53;;;31.00;;
21769;SDS011;11046;49.558;8.674;2023-02-23T06:56:14;70.43;;;30.43;;
21769;SDS011;11046;49.558;8.674;2023-02-23T06:59:15;64.43;;;30.07;;
21769;SDS011;11046;49.558;8.674;2023-02-23T07:02:16;68.57;;;30.53;;
21769;SDS011;11046;49.558;8.674;2023-02-23T07:05:16;69.43;;;30.37;;
21769;SDS011;11046;49.558;8.674;2023-02-23T07:08:17;68.43;;;29.73;;
21769;SDS011;11046;49.558;8.674;2023-02-23T07:11:18;69.30;;;30.43;;
21769;SDS011;11046;49.558;8.674;2023-02-23T07:14:18;65.87;;;30.10;;
21769;SDS011;11046;49.558;8.674;2023-02-23T07:17:19;64.07;;;29.13;;
21769;SDS011;11046;49.558;8.674;2023-02-23T07:20:20;63.47;;;28.17;;
21769;SDS011;11046;49.558;8.674;2023-02-23T07:23:20;63.87;;;29.80;;
21769;SDS011;11046;49.558;8.674;2023-02-23T07:26:21;61.90;;;28.53;;
21769;SDS011;11046;49.558;8.674;2023-02-23T07:29:22;67.77;;;30.90;;
21769;SDS011;11046;49.558;8.674;2023-02-23T07:32:27;64.63;;;29.30;;
21769;SDS011;11046;49.558;8.674;2023-02-23T07:35:28;64.63;;;29.10;;
21769;SDS011;11046;49.558;8.674;2023-02-23T07:38:28;64.00;;;29.43;;
21769;SDS011;11046;49.558;8.674;2023-02-23T07:41:29;58.40;;;27.57;;
21769;SDS011;11046;49.558;8.674;2023-02-23T07:44:30;60.63;;;28.13;;
21769;SDS011;11046;49.558;8.674;2023-02-23T07:47:30;64.77;;;27.87;;
21769;SDS011;11046;49.558;8.674;2023-02-23T07:50:31;72.33;;;30.40;;
21769;SDS011;11046;49.558;8.674;2023-02-23T07:53:32;62.00;;;29.00;;
21769;SDS011;11046;49.558;8.674;2023-02-23T07:56:32;64.97;;;30.40;;
21769;SDS011;11046;49.558;8.674;2023-02-23T07:59:34;60.83;;;28.00;;
21769;SDS011;11046;49.558;8.674;2023-02-23T08:02:35;67.67;;;29.50;;
21769;SDS011;11046;49.558;8.674;2023-02-23T08:05:36;58.97;;;28.47;;
21769;SDS011;11046;49.558;8.674;2023-02-23T08:08:39;61.43;;;27.53;;
21769;SDS011;11046;49.558;8.674;2023-02-23T08:11:39;57.17;;;26.90;;
21769;SDS011;11046;49.558;8.674;2023-02-23T08:14:40;67.27;;;26.43;;
21769;SDS011;11046;49.558;8.674;2023-02-23T08:17:41;59.03;;;26.90;;
21769;SDS011;11046;49.558;8.674;2023-02-23T08:20:42;58.27;;;26.37;;
21769;SDS011;11046;49.558;8.674;2023-02-23T08:23:43;56.70;;;27.20;;
21769;SDS011;11046;49.558;8.674;2023-02-23T08:26:43;51.80;;;26.80;;
21769;SDS011;11046;49.558;8.674;2023-02-23T08:29:44;55.67;;;26.37;;
21769;SDS011;11046;49.558;8.674;2023-02-23T08:32:44;57.73;;;27.00;;
21769;SDS011;11046;49.558;8.674;2023-02-23T08:35:45;53.83;;;27.23;;
21769;SDS011;11046;49.558;8.674;2023-02-23T08:38:46;61.70;;;27.33;;
21769;SDS011;11046;49.558;8.674;2023-02-23T08:41:47;54.50;;;27.20;;
21769;SDS011;11046;49.558;8.674;2023-02-23T08:44:48;53.97;;;27.87;;
21769;SDS011;11046;49.558;8.674;2023-02-23T08:47:48;52.60;;;27.13;;
21769;SDS011;11046;49.558;8.674;2023-02-23T08:50:49;56.30;;;27.83;;
21769;SDS011;11046;49.558;8.674;2023-02-23T08:53:55;64.30;;;28.03;;
21769;SDS011;11046;49.558;8.674;2023-02-23T08:56:56;52.67;;;26.47;;
21769;SDS011;11046;49.558;8.674;2023-02-23T08:59:59;56.23;;;27.63;;
21769;SDS011;11046;49.558;8.674;2023-02-23T09:03:00;53.50;;;26.27;;
21769;SDS011;11046;49.558;8.674;2023-02-23T09:06:06;56.63;;;27.47;;
21769;SDS011;11046;49.558;8.674;2023-02-23T09:09:09;56.43;;;25.43;;
21769;SDS011;11046;49.558;8.674;2023-02-23T09:12:09;55.90;;;25.97;;
21769;SDS011;11046;49.558;8.674;2023-02-23T09:15:10;56.73;;;26.43;;
21769;SDS011;11046;49.558;8.674;2023-02-23T09:18:11;51.67;;;26.57;;
21769;SDS011;11046;49.558;8.674;2023-02-23T09:21:14;54.40;;;26.40;;
21769;SDS011;11046;49.558;8.674;2023-02-23T09:24:25;59.37;;;28.10;;
21769;SDS011;11046;49.558;8.674;2023-02-23T09:27:26;54.77;;;25.93;;
21769;SDS011;11046;49.558;8.674;2023-02-23T09:30:26;54.23;;;25.93;;
21769;SDS011;11046;49.558;8.674;2023-02-23T09:33:27;49.97;;;24.87;;
21769;SDS011;11046;49.558;8.674;2023-02-23T09:36:28;47.90;;;24.97;;
21769;SDS011;11046;49.558;8.674;2023-02-23T09:39:30;48.50;;;24.77;;
21769;SDS011;11046;49.558;8.674;2023-02-23T09:42:43;48.60;;;23.97;;
21769;SDS011;11046;49.558;8.674;2023-02-23T09:48:59;55.13;;;25.87;;
21769;SDS011;11046;49.558;8.674;2023-02-23T09:52:02;48.57;;;23.63;;
21769;SDS011;11046;49.558;8.674;2023-02-23T09:55:04;47.73;;;24.73;;
21769;SDS011;11046;49.558;8.674;2023-02-23T09:58:06;47.17;;;25.57;;
21769;SDS011;11046;49.558;8.674;2023-02-23T10:02:20;50.83;;;25.20;;
21769;SDS011;11046;49.558;8.674;2023-02-23T10:04:47;48.83;;;24.33;;
21769;SDS011;11046;49.558;8.674;2023-02-23T10:08:01;42.83;;;23.23;;
21769;SDS011;11046;49.558;8.674;2023-02-23T10:11:12;46.50;;;24.17;;
21769;SDS011;11046;49.558;8.674;2023-02-23T10:18:29;41.70;;;22.63;;
21769;SDS011;11046;49.558;8.674;2023-02-23T10:21:39;45.70;;;22.47;;
21769;SDS011;11046;49.558;8.674;2023-02-23T10:24:42;47.93;;;22.40;;
21769;SDS011;11046;49.558;8.674;2023-02-23T10:27:48;40.47;;;22.00;;
21769;SDS011;11046;49.558;8.674;2023-02-23T10:30:49;38.00;;;21.13;;
21769;SDS011;11046;49.558;8.674;2023-02-23T10:33:54;39.15;;;20.77;;
21769;SDS011;11046;49.558;8.674;2023-02-23T10:37:00;45.40;;;21.83;;
21769;SDS011;11046;49.558;8.674;2023-02-23T10:40:03;39.03;;;20.20;;
21769;SDS011;11046;49.558;8.674;2023-02-23T10:43:05;35.10;;;20.20;;
21769;SDS011;11046;49.558;8.674;2023-02-23T10:46:06;37.70;;;19.03;;
21769;SDS011;11046;49.558;8.674;2023-02-23T10:49:17;39.30;;;19.30;;
21769;SDS011;11046;49.558;8.674;2023-02-23T10:52:23;33.30;;;18.45;;
21769;SDS011;11046;49.558;8.674;2023-02-23T10:55:34;36.30;;;18.33;;
21769;SDS011;11046;49.558;8.674;2023-02-23T10:58:48;35.97;;;18.42;;
21769;SDS011;11046;49.558;8.674;2023-02-23T11:01:54;36.22;;;18.33;;
21769;SDS011;11046;49.558;8.674;2023-02-23T11:04:55;40.33;;;20.27;;
21769;SDS011;11046;49.558;8.674;2023-02-23T11:08:10;40.45;;;20.50;;
21769;SDS011;11046;49.558;8.674;2023-02-23T11:11:25;44.35;;;21.67;;
21769;SDS011;11046;49.558;8.674;2023-02-23T11:14:30;38.92;;;20.70;;
21769;SDS011;11046;49.558;8.674;2023-02-23T11:17:32;38.10;;;20.90;;
21769;SDS011;11046;49.558;8.674;2023-02-23T11:20:38;38.33;;;20.67;;
21769;SDS011;11046;49.558;8.674;2023-02-23T11:23:40;35.30;;;19.77;;
21769;SDS011;11046;49.558;8.674;2023-02-23T11:26:42;30.98;;;17.70;;
21769;SDS011;11046;49.558;8.674;2023-02-23T11:29:44;35.33;;;18.05;;
21769;SDS011;11046;49.558;8.674;2023-02-23T11:32:49;31.98;;;16.98;;
21769;SDS011;11046;49.558;8.674;2023-02-23T11:35:56;32.17;;;17.98;;
21769;SDS011;11046;49.558;8.674;2023-02-23T11:42:15;28.55;;;13.73;;
21769;SDS011;11046;49.558;8.674;2023-02-23T11:45:25;27.13;;;13.95;;
21769;SDS011;11046;49.558;8.674;2023-02-23T11:51:39;22.58;;;11.73;;
21769;SDS011;11046;49.558;8.674;2023-02-23T11:54:55;21.10;;;10.52;;
21769;SDS011;11046;49.558;8.674;2023-02-23T11:58:08;17.33;;;10.55;;
21769;SDS011;11046;49.558;8.674;2023-02-23T12:01:19;21.48;;;11.35;;
21769;SDS011;11046;49.558;8.674;2023-02-23T12:04:26;20.00;;;10.48;;
21769;SDS011;11046;49.558;8.674;2023-02-23T12:10:42;16.88;;;9.70;;
21769;SDS011;11046;49.558;8.674;2023-02-23T12:13:47;14.93;;;8.55;;
21769;SDS011;11046;49.558;8.674;2023-02-23T12:16:56;17.90;;;8.93;;
21769;SDS011;11046;49.558;8.674;2023-02-23T12:20:13;18.23;;;9.85;;
21769;SDS011;11046;49.558;8.674;2023-02-23T12:23:21;17.58;;;10.55;;
21769;SDS011;11046;49.558;8.674;2023-02-23T12:26:25;19.90;;;10.73;;
21769;SDS011;11046;49.558;8.674;2023-02-23T12:29:30;22.52;;;11.25;;
21769;SDS011;11046;49.558;8.674;2023-02-23T12:40:10;22.27;;;10.05;;
21769;SDS011;11046;49.558;8.674;2023-02-23T12:46:39;20.30;;;10.48;;
21769;SDS011;11046;49.558;8.674;2023-02-23T12:49:48;22.52;;;11.25;;
21769;SDS011;11046;49.558;8.674;2023-02-23T12:53:36;18.77;;;10.10;;
21769;SDS011;11046;49.558;8.674;2023-02-23T13:03:35;19.90;;;9.23;;
21769;SDS011;11046;49.558;8.674;2023-02-23T13:06:56;18.67;;;9.45;;
21769;SDS011;11046;49.558;8.674;2023-02-23T13:10:21;16.98;;;9.05;;
21769;SDS011;11046;49.558;8.674;2023-02-23T13:13:29;17.08;;;8.40;;
21769;SDS011;11046;49.558;8.674;2023-02-23T13:16:36;18.45;;;9.10;;
21769;SDS011;11046;49.558;8.674;2023-02-23T13:19:48;15.68;;;8.68;;
21769;SDS011;11046;49.558;8.674;2023-02-23T13:23:08;20.58;;;10.50;;
21769;SDS011;11046;49.558;8.674;2023-02-23T13:32:28;17.20;;;10.63;;
21769;SDS011;11046;49.558;8.674;2023-02-23T13:35:32;16.98;;;9.93;;
21769;SDS011;11046;49.558;8.674;2023-02-23T13:38:40;15.77;;;9.93;;
21769;SDS011;11046;49.558;8.674;2023-02-23T13:41:45;15.77;;;8.77;;
21769;SDS011;11046;49.558;8.674;2023-02-23T13:48:14;14.55;;;9.20;;
21769;SDS011;11046;49.558;8.674;2023-02-23T13:51:47;16.20;;;9.77;;
21769;SDS011;11046;49.558;8.674;2023-02-23T13:54:53;16.38;;;10.13;;
21769;SDS011;11046;49.558;8.674;2023-02-23T13:58:03;15.73;;;8.63;;
21769;SDS011;11046;49.558;8.674;2023-02-23T14:01:15;22.08;;;10.20;;
21769;SDS011;11046;49.558;8.674;2023-02-23T14:04:20;15.18;;;9.02;;
21769;SDS011;11046;49.558;8.674;2023-02-23T14:07:37;14.30;;;8.45;;
21769;SDS011;11046;49.558;8.674;2023-02-23T14:10:40;17.20;;;8.80;;
21769;SDS011;11046;49.558;8.674;2023-02-23T14:13:56;13.73;;;7.75;;
21769;SDS011;11046;49.558;8.674;2023-02-23T14:20:18;17.23;;;7.15;;
21769;SDS011;11046;49.558;8.674;2023-02-23T14:36:49;12.15;;;4.63;;
21769;SDS011;11046;49.558;8.674;2023-02-23T14:39:55;7.88;;;4.47;;
21769;SDS011;11046;49.558;8.674;2023-02-23T14:43:01;7.93;;;4.25;;
21769;SDS011;11046;49.558;8.674;2023-02-23T14:46:02;7.65;;;4.80;;
21769;SDS011;11046;49.558;8.674;2023-02-23T14:49:19;11.93;;;4.65;;
21769;SDS011;11046;49.558;8.674;2023-02-23T14:52:28;11.88;;;5.50;;
21769;SDS011;11046;49.558;8.674;2023-02-23T14:55:32;11.48;;;4.93;;
21769;SDS011;11046;49.558;8.674;2023-02-23T14:58:36;10.18;;;5.40;;
21769;SDS011;11046;49.558;8.674;2023-02-23T15:01:38;8.23;;;4.80;;
21769;SDS011;11046;49.558;8.674;2023-02-23T15:04:38;14.68;;;5.53;;
21769;SDS011;11046;49.558;8.674;2023-02-23T15:07:39;13.05;;;6.18;;
21769;SDS011;11046;49.558;8.674;2023-02-23T15:10:41;11.98;;;5.07;;
21769;SDS011;11046;49.558;8.674;2023-02-23T15:13:46;12.20;;;5.07;;
21769;SDS011;11046;49.558;8.674;2023-02-23T15:16:49;8.88;;;5.15;;
21769;SDS011;11046;49.558;8.674;2023-02-23T15:19:53;9.13;;;5.22;;
21769;SDS011;11046;49.558;8.674;2023-02-23T15:22:55;15.18;;;5.13;;
21769;SDS011;11046;49.558;8.674;2023-02-23T15:25:58;9.77;;;4.72;;
21769;SDS011;11046;49.558;8.674;2023-02-23T15:32:19;8.35;;;4.50;;
21769;SDS011;11046;49.558;8.674;2023-02-23T15:35:23;7.60;;;4.18;;
21769;SDS011;11046;49.558;8.674;2023-02-23T15:38:25;10.43;;;4.97;;
21769;SDS011;11046;49.558;8.674;2023-02-23T15:41:30;6.82;;;4.43;;
21769;SDS011;11046;49.558;8.674;2023-02-23T15:44:35;8.55;;;4.60;;
21769;SDS011;11046;49.558;8.674;2023-02-23T15:47:37;9.38;;;4.72;;
21769;SDS011;11046;49.558;8.674;2023-02-23T15:50:41;9.63;;;5.60;;
21769;SDS011;11046;49.558;8.674;2023-02-23T15:53:47;9.15;;;4.32;;
21769;SDS011;11046;49.558;8.674;2023-02-23T15:56:48;10.07;;;5.45;;
21769;SDS011;11046;49.558;8.674;2023-02-23T15:59:56;9.27;;;5.55;;
21769;SDS011;11046;49.558;8.674;2023-02-23T16:02:59;12.23;;;5.30;;
21769;SDS011;11046;49.558;8.674;2023-02-23T16:06:06;15.65;;;6.35;;
21769;SDS011;11046;49.558;8.674;2023-02-23T16:12:24;20.27;;;6.40;;
21769;SDS011;11046;49.558;8.674;2023-02-23T16:15:34;20.08;;;5.93;;
21769;SDS011;11046;49.558;8.674;2023-02-23T16:18:40;15.52;;;6.43;;
21769;SDS011;11046;49.558;8.674;2023-02-23T16:21:41;12.63;;;5.93;;
21769;SDS011;11046;49.558;8.674;2023-02-23T16:24:57;16.35;;;6.57;;
21769;SDS011;11046;49.558;8.674;2023-02-23T16:28:01;17.88;;;6.70;;
21769;SDS011;11046;49.558;8.674;2023-02-23T16:31:06;19.07;;;7.07;;
21769;SDS011;11046;49.558;8.674;2023-02-23T16:34:20;13.93;;;6.72;;
21769;SDS011;11046;49.558;8.674;2023-02-23T16:37:47;21.92;;;7.18;;
21769;SDS011;11046;49.558;8.674;2023-02-23T16:40:49;15.13;;;6.88;;
21769;SDS011;11046;49.558;8.674;2023-02-23T16:43:51;19.20;;;6.13;;
21769;SDS011;11046;49.558;8.674;2023-02-23T16:46:54;17.30;;;6.57;;
21769;SDS011;11046;49.558;8.674;2023-02-23T16:50:08;13.57;;;6.32;;
21769;SDS011;11046;49.558;8.674;2023-02-23T16:53:19;15.13;;;6.25;;
21769;SDS011;11046;49.558;8.674;2023-02-23T16:56:20;16.80;;;6.28;;
21769;SDS011;11046;49.558;8.674;2023-02-23T16:59:21;11.73;;;6.40;;
21769;SDS011;11046;49.558;8.674;2023-02-23T17:02:23;12.37;;;6.00;;
21769;SDS011;11046;49.558;8.674;2023-02-23T17:05:23;25.63;;;6.00;;
21769;SDS011;11046;49.558;8.674;2023-02-23T17:08:24;17.92;;;5.85;;
21769;SDS011;11046;49.558;8.674;2023-02-23T17:11:25;12.27;;;5.60;;
21769;SDS011;11046;49.558;8.674;2023-02-23T17:14:26;15.40;;;5.60;;
21769;SDS011;11046;49.558;8.674;2023-02-23T17:17:31;18.20;;;5.97;;
21769;SDS011;11046;49.558;8.674;2023-02-23T17:20:32;13.33;;;7.20;;
21769;SDS011;11046;49.558;8.674;2023-02-23T17:23:33;14.40;;;6.27;;
21769;SDS011;11046;49.558;8.674;2023-02-23T17:26:41;14.47;;;6.33;;
21769;SDS011;11046;49.558;8.674;2023-02-23T17:29:42;11.27;;;5.93;;
21769;SDS011;11046;49.558;8.674;2023-02-23T17:32:42;11.83;;;6.73;;
21769;SDS011;11046;49.558;8.674;2023-02-23T17:35:43;14.73;;;6.13;;
21769;SDS011;11046;49.558;8.674;2023-02-23T17:38:45;15.33;;;7.33;;
21769;SDS011;11046;49.558;8.674;2023-02-23T17:41:45;13.17;;;6.80;;
21769;SDS011;11046;49.558;8.674;2023-02-23T17:44:46;13.13;;;6.33;;
21769;SDS011;11046;49.558;8.674;2023-02-23T17:47:47;14.87;;;6.90;;
21769;SDS011;11046;49.558;8.674;2023-02-23T17:50:47;11.70;;;6.57;;
21769;SDS011;11046;49.558;8.674;2023-02-23T17:53:54;17.27;;;6.60;;
21769;SDS011;11046;49.558;8.674;2023-02-23T17:56:55;18.70;;;6.87;;
21769;SDS011;11046;49.558;8.674;2023-02-23T17:59:56;10.07;;;6.77;;
21769;SDS011;11046;49.558;8.674;2023-02-23T18:02:57;14.37;;;7.70;;
21769;SDS011;11046;49.558;8.674;2023-02-23T18:06:01;13.70;;;8.90;;
21769;SDS011;11046;49.558;8.674;2023-02-23T18:09:03;13.37;;;8.23;;
21769;SDS011;11046;49.558;8.674;2023-02-23T18:12:05;13.67;;;7.90;;
21769;SDS011;11046;49.558;8.674;2023-02-23T18:15:06;14.80;;;7.03;;
21769;SDS011;11046;49.558;8.674;2023-02-23T18:18:07;17.87;;;9.27;;
21769;SDS011;11046;49.558;8.674;2023-02-23T18:21:12;17.53;;;8.47;;
21769;SDS011;11046;49.558;8.674;2023-02-23T18:24:14;11.87;;;7.53;;
21769;SDS011;11046;49.558;8.674;2023-02-23T18:27:15;12.50;;;7.93;;
21769;SDS011;11046;49.558;8.674;2023-02-23T18:30:15;13.03;;;7.37;;
21769;SDS011;11046;49.558;8.674;2023-02-23T18:33:16;17.33;;;7.27;;
21769;SDS011;11046;49.558;8.674;2023-02-23T18:36:24;13.53;;;6.90;;
21769;SDS011;11046;49.558;8.674;2023-02-23T18:39:27;14.63;;;7.20;;
21769;SDS011;11046;49.558;8.674;2023-02-23T18:42:30;15.40;;;7.57;;
21769;SDS011;11046;49.558;8.674;2023-02-23T18:45:30;13.77;;;8.03;;
21769;SDS011;11046;49.558;8.674;2023-02-23T18:48:32;13.47;;;8.23;;
21769;SDS011;11046;49.558;8.674;2023-02-23T18:51:32;21.27;;;13.47;;
21769;SDS011;11046;49.558;8.674;2023-02-23T18:54:34;15.13;;;8.80;;
21769;SDS011;11046;49.558;8.674;2023-02-23T18:57:36;21.20;;;11.33;;
21769;SDS011;11046;49.558;8.674;2023-02-23T19:00:36;18.60;;;9.27;;
21769;SDS011;11046;49.558;8.674;2023-02-23T19:03:41;13.80;;;8.50;;
21769;SDS011;11046;49.558;8.674;2023-02-23T19:06:44;15.50;;;8.63;;
21769;SDS011;11046;49.558;8.674;2023-02-23T19:09:46;14.90;;;8.67;;
21769;SDS011;11046;49.558;8.674;2023-02-23T19:12:46;17.33;;;8.50;;
21769;SDS011;11046;49.558;8.674;2023-02-23T19:15:47;13.67;;;8.40;;
21769;SDS011;11046;49.558;8.674;2023-02-23T19:18:48;19.60;;;10.17;;
21769;SDS011;11046;49.558;8.674;2023-02-23T19:21:49;21.97;;;11.57;;
21769;SDS011;11046;49.558;8.674;2023-02-23T19:24:50;21.47;;;10.37;;
21769;SDS011;11046;49.558;8.674;2023-02-23T19:27:51;22.47;;;10.73;;
21769;SDS011;11046;49.558;8.674;2023-02-23T19:31:06;19.57;;;9.23;;
21769;SDS011;11046;49.558;8.674;2023-02-23T19:34:09;20.83;;;9.73;;
21769;SDS011;11046;49.558;8.674;2023-02-23T19:37:10;18.37;;;10.27;;
21769;SDS011;11046;49.558;8.674;2023-02-23T19:40:12;22.53;;;10.77;;
21769;SDS011;11046;49.558;8.674;2023-02-23T19:43:18;18.00;;;10.00;;